Latest Weather Observations for Roseworthy

IDS60901

Issued at 9:51 pm CDT Friday 6 December 2019 (issued every 10 minutes, with the page automatically refreshed every 10 minutes)

About weather observations | Map of Adelaide area stations | Latest observations for Adelaide area | Other Formats
Station Details ID: 023122 Name: ROSEWORTHY AWS Lat: -34.51 Lon: 138.68 Height: 65.0 m
Data from the previous 72 hours. | See also: Recent months at Roseworthy
Date/Time
CDT
Temp
°C
App
Temp
°C
Dew
Point
°C
Rel
Hum
%
Delta-T
°C
Wind Press
QNH
hPa
Press
MSL
hPa
Rain since
9am
mm
Dir  Spd
km/h
Gust
km/h
Spd
kts
Gust
kts
06/09:30pm 15.7 13.2 9.8 68 3.1 SSW 13 20 7 11 1016.9 1016.7 0.0
06/09:00pm 16.1 12.9 10.0 67 3.2 SW 17 24 9 13 1016.9 1016.7 0.0
06/08:30pm 16.8 12.9 9.5 62 3.8 SW 20 26 11 14 1016.8 1016.6 0.0
06/08:00pm 17.8 14.2 9.7 59 4.3 SW 19 24 10 13 1016.5 1016.3 0.0
06/07:30pm 19.0 14.9 10.0 56 4.8 SW 22 32 12 17 1016.2 1016.0 0.0
06/07:00pm 19.6 14.6 10.9 57 4.7 SW 28 35 15 19 1015.9 1015.7 0.0
06/06:30pm 20.1 15.0 10.5 54 5.2 SW 28 35 15 19 1015.9 1015.7 0.0
06/06:00pm 21.1 16.4 10.6 51 5.7 WSW 26 33 14 18 1015.5 1015.3 0.0
06/05:30pm 20.9 16.4 10.1 50 5.8 SW 24 33 13 18 1015.2 1014.9 0.0
06/05:00pm 22.1 17.6 9.9 46 6.6 SW 24 33 13 18 1015.0 1014.7 0.0
06/04:30pm 22.4 17.7 9.2 43 7.1 SW 24 33 13 18 1015.0 1014.7 0.0
06/04:00pm 22.5 18.4 10.0 45 6.8 SW 22 33 12 18 1015.1 1014.8 0.0
06/03:30pm 21.7 17.3 10.5 49 6.1 SW 24 33 13 18 1015.3 1015.1 0.0
06/03:00pm 22.1 17.9 9.9 46 6.6 SW 22 32 12 17 1015.4 1015.2 0.0
06/02:30pm 21.9 18.3 10.4 48 6.3 SW 20 32 11 17 1015.6 1015.4 0.0
06/02:00pm 21.1 17.5 10.0 49 6.0 SW 19 30 10 16 1015.8 1015.6 0.0
06/01:30pm 20.9 16.3 9.8 49 6.0 SW 24 32 13 17 1016.2 1016.0 0.0
06/01:00pm 21.1 17.4 10.0 49 6.0 SW 20 28 11 15 1016.3 1016.1 0.0
06/12:30pm 19.7 15.8 9.3 51 5.5 SW 20 32 11 17 1016.4 1016.2 0.0
06/12:00pm 19.3 15.9 9.2 52 5.3 SW 17 24 9 13 1016.3 1016.1 0.0
06/11:30am 19.1 15.2 9.3 53 5.2 SW 20 30 11 16 1016.4 1016.2 0.0
06/11:00am 19.3 16.1 10.0 55 5.0 SSW 17 26 9 14 1016.7 1016.5 0.0
06/10:30am 18.7 15.0 9.5 55 4.9 SW 19 28 10 15 1016.8 1016.6 0.0
06/10:00am 17.4 14.4 9.3 59 4.2 SW 15 26 8 14 1016.6 1016.4 0.0
06/09:30am 16.4 13.0 9.1 62 3.8 S 17 26 9 14 1016.6 1016.4 0.0
06/09:00am 16.3 12.4 9.5 64 3.5 SSW 20 28 11 15 1016.4 1016.2 0.0
06/08:30am 15.1 10.8 9.2 68 3.0 SSW 22 30 12 16 1016.4 1016.2 0.0
06/08:00am 14.4 11.5 9.8 74 2.4 SSW 15 20 8 11 1015.6 1015.4 0.0
06/07:30am 13.5 11.0 9.6 77 2.0 S 13 19 7 10 1015.3 1015.1 0.0
06/07:00am 13.0 10.2 10.0 82 1.5 SSW 15 20 8 11 1015.0 1014.7 0.0
06/06:30am 10.5 8.9 10.2 98 0.2 WSW 9 11 5 6 1014.6 1014.3 0.0
06/06:00am 8.1 6.0 8.1 100 0.0 SW 9 11 5 6 1014.4 1014.1 0.0
06/05:30am 7.9 5.7 7.9 100 0.0 NNW 9 11 5 6 1013.9 1013.6 0.0
06/05:00am 6.7 4.2 6.4 98 0.1 N 9 11 5 6 1013.7 1013.4 0.0
06/04:30am 7.2 4.0 6.9 98 0.1 N 13 13 7 7 1013.5 1013.2 0.0
06/04:00am 7.7 5.0 7.3 97 0.2 N 11 13 6 7 1013.7 1013.4 0.0
06/03:30am 8.1 5.4 7.3 95 0.4 NNE 11 13 6 7 1013.6 1013.3 0.0
06/03:00am 10.6 10.0 10.3 98 0.2 NE 4 7 2 4 1013.5 1013.2 0.0
06/02:30am 9.3 9.0 8.7 96 0.3 CALM 0 7 0 4 1013.5 1013.2 0.0
06/02:00am 9.0 7.8 8.1 94 0.4 ENE 4 7 2 4 1013.5 1013.2 0.0
06/01:30am 9.7 8.1 8.8 94 0.4 NE 7 9 4 5 1013.6 1013.3 0.0
06/01:00am 9.8 8.2 8.6 92 0.6 ENE 7 9 4 5 1013.7 1013.4 0.0
06/12:30am 12.2 10.9 11.4 95 0.4 SW 9 15 5 8 1013.7 1013.4 0.0
06/12:00am 11.4 10.2 10.3 93 0.6 WNW 7 9 4 5 1013.6 1013.3 0.0
 
Date/Time
CDT
Temp
°C
App
Temp
°C
Dew
Point
°C
Rel
Hum
%
Delta-T
°C
Wind Press
QNH
hPa
Press
MSL
hPa
Rain since
9am
mm
Dir  Spd
km/h
Gust
km/h
Spd
kts
Gust
kts
05/11:30pm 12.1 11.0 10.7 91 0.7 WSW 7 9 4 5 1013.6 1013.3 0.0
05/11:00pm 13.0 11.8 11.7 92 0.7 WNW 9 11 5 6 1013.8 1013.5 0.0
05/10:30pm 12.9 11.7 11.5 91 0.7 W 9 11 5 6 1013.9 1013.6 0.0
05/10:00pm 14.2 12.8 12.2 88 1.1 WSW 11 13 6 7 1013.6 1013.3 0.0
05/09:30pm 15.7 14.7 13.4 86 1.3 WSW 11 15 6 8 1013.3 1013.1 0.0
05/09:00pm 16.6 15.9 13.3 81 1.9 WSW 9 13 5 7 1013.0 1012.8 0.0
05/08:30pm 17.8 15.9 13.1 74 2.6 SW 15 17 8 9 1012.9 1012.7 0.0
05/08:00pm 19.3 17.4 11.8 62 4.2 SW 13 20 7 11 1012.7 1012.5 0.0
05/07:30pm 20.7 17.6 10.2 51 5.7 SW 17 22 9 12 1012.6 1012.4 0.0
05/07:00pm 21.6 17.9 9.5 46 6.5 SW 19 26 10 14 1012.3 1012.1 0.0
05/06:30pm 22.7 19.0 11.4 49 6.3 SW 22 26 12 14 1012.2 1012.0 0.0
05/06:00pm 23.7 20.3 10.7 44 7.2 SW 19 26 10 14 1012.1 1011.9 0.0
05/05:30pm 24.5 20.9 11.8 45 7.2 SW 22 30 12 16 1012.1 1011.9 0.0
05/05:00pm 25.0 20.9 11.6 43 7.6 SW 24 33 13 18 1012.3 1012.1 0.0
05/04:30pm 25.5 20.8 10.5 39 8.4 WSW 26 35 14 19 1012.3 1012.1 0.0
05/04:00pm 26.3 21.3 9.6 35 9.2 WSW 26 39 14 21 1012.3 1012.1 0.0
05/03:30pm 26.9 22.3 9.7 34 9.6 WSW 24 37 13 20 1012.4 1012.2 0.0
05/03:00pm 27.2 21.1 6.6 27 10.9 W 28 39 15 21 1012.6 1012.4 0.0
05/02:30pm 26.5 19.7 4.9 25 11.0 WSW 30 39 16 21 1012.8 1012.6 0.0
05/02:00pm 27.6 21.0 4.0 22 11.9 WSW 28 35 15 19 1012.9 1012.7 0.0
05/01:30pm 26.9 20.2 3.4 22 11.7 WSW 28 43 15 23 1013.0 1012.8 0.0
05/01:00pm 26.6 19.7 4.4 24 11.2 W 30 41 16 22 1013.2 1013.0 0.0
05/12:30pm 26.6 19.8 5.0 25 11.0 WSW 30 43 16 23 1013.5 1013.2 0.0
05/12:00pm 25.8 20.3 5.9 28 10.3 W 24 35 13 19 1013.7 1013.4 0.0
05/11:30am 24.5 17.8 3.8 26 10.2 W 28 41 15 22 1013.8 1013.5 0.0
05/11:00am 23.9 20.2 7.9 36 8.5 WSW 17 26 9 14 1013.8 1013.5 0.0
05/10:30am 22.3 18.5 9.1 43 7.1 W 19 26 10 14 1013.9 1013.6 0.0
05/10:00am 20.6 17.8 10.1 51 5.7 W 15 22 8 12 1013.8 1013.5 0.0
05/09:30am 19.2 17.1 11.0 59 4.5 WSW 13 19 7 10 1013.8 1013.5 0.0
05/09:00am 18.3 16.2 11.1 63 3.9 SW 13 17 7 9 1014.1 1013.8 0.0
05/08:30am 17.1 16.2 11.4 69 3.1 SW 7 11 4 6 1014.2 1013.9 0.0
05/08:00am 15.9 14.9 10.4 70 2.9 NW 6 9 3 5 1013.8 1013.5 0.0
05/07:30am 14.1 12.3 8.1 67 3.0 N 7 9 4 5 1013.6 1013.3 0.0
05/07:00am 12.2 11.5 7.1 71 2.5 CALM 0 0 0 0 1013.6 1013.3 0.0
05/06:30am 10.3 8.4 6.8 79 1.7 NE 6 9 3 5 1013.2 1013.0 0.0
05/06:00am 8.2 4.8 5.8 85 1.1 NNW 13 13 7 7 1013.1 1012.9 0.0
05/05:30am 8.9 4.8 6.2 83 1.2 N 17 19 9 10 1012.6 1012.4 0.0
05/05:00am 9.8 5.9 6.9 82 1.4 N 17 20 9 11 1012.5 1012.3 0.0
05/04:30am 9.6 5.8 7.4 86 1.0 N 17 19 9 10 1012.4 1012.2 0.0
05/04:00am 6.3 3.4 4.5 88 0.8 NNE 9 13 5 7 1012.6 1012.4 0.0
05/03:30am 6.8 4.0 5.0 88 0.8 NNE 9 11 5 6 1012.9 1012.7 0.0
05/03:00am 8.5 5.6 6.5 87 0.9 N 11 13 6 7 1013.2 1013.0 0.0
05/02:30am 8.7 6.3 6.8 88 0.9 N 9 11 5 6 1013.6 1013.3 0.0
05/02:00am 8.2 6.1 6.5 89 0.8 NNE 7 9 4 5 1013.9 1013.6 0.0
05/01:30am 8.5 5.9 6.3 86 1.0 N 9 9 5 5 1014.1 1013.8 0.0
05/01:00am 9.8 7.2 7.7 87 1.0 N 11 13 6 7 1014.4 1014.1 0.0
05/12:30am 9.4 6.9 6.7 83 1.3 N 9 11 5 6 1014.6 1014.3 0.0
05/12:00am 11.6 8.9 8.8 83 1.4 N 13 15 7 8 1014.8 1014.5 0.0
 
Date/Time
CDT
Temp
°C
App
Temp
°C
Dew
Point
°C
Rel
Hum
%
Delta-T
°C
Wind Press
QNH
hPa
Press
MSL
hPa
Rain since
9am
mm
Dir  Spd
km/h
Gust
km/h
Spd
kts
Gust
kts
04/11:30pm 9.9 7.5 6.8 81 1.5 N 9 11 5 6 1014.9 1014.6 0.0
04/11:00pm 10.4 7.9 6.7 78 1.7 N 9 9 5 5 1015.1 1014.8 0.0
04/10:30pm 11.4 10.7 7.1 75 2.1 CALM 0 0 0 0 1014.9 1014.6 0.0
04/10:00pm 12.1 11.3 6.4 68 2.7 CALM 0 0 0 0 1015.0 1014.7 0.0
04/09:30pm 13.8 13.5 8.6 71 2.6 CALM 0 0 0 0 1015.0 1014.7 0.0
04/09:00pm 16.0 16.0 9.7 66 3.3 CALM 0 0 0 0 1015.0 1014.7 0.0
04/08:30pm 17.6 16.3 9.8 60 4.1 SW 7 9 4 5 1015.0 1014.7 0.0
04/08:00pm 19.4 17.0 9.9 54 5.1 SW 13 17 7 9 1015.1 1014.8 0.0
04/07:30pm 21.5 17.5 8.4 43 6.9 WSW 19 24 10 13 1015.2 1014.9 0.0
04/07:00pm 22.5 17.3 5.4 33 8.6 WSW 22 28 12 15 1014.9 1014.6 0.0
04/06:30pm 23.0 17.6 6.3 34 8.5 WSW 24 32 13 17 1014.7 1014.4 0.0
04/06:00pm 23.8 18.1 6.6 33 8.9 W 26 37 14 20 1014.9 1014.6 0.0
04/05:30pm 23.8 18.3 7.4 35 8.6 WSW 26 33 14 18 1014.9 1014.6 0.0
04/05:00pm 24.1 18.2 7.7 35 8.7 WSW 28 37 15 20 1014.8 1014.5 0.0
04/04:30pm 25.1 20.4 7.7 33 9.2 WSW 22 35 12 19 1014.7 1014.4 0.0
04/04:00pm 24.6 19.1 7.7 34 9.0 WSW 26 35 14 19 1014.9 1014.6 0.0
04/03:30pm 24.6 19.0 7.3 33 9.1 W 26 35 14 19 1015.0 1014.7 0.0
04/03:00pm 24.4 18.9 5.7 30 9.5 W 24 35 13 19 1015.2 1014.9 0.0
04/02:30pm 24.9 20.4 7.1 32 9.3 W 20 30 11 16 1015.4 1015.2 0.0
04/02:00pm 24.0 19.1 6.7 33 9.0 WSW 22 30 12 16 1015.6 1015.4 0.0
04/01:30pm 24.3 19.8 8.7 37 8.4 W 22 32 12 17 1015.9 1015.7 0.0
04/01:00pm 22.9 18.8 8.6 40 7.6 WSW 20 30 11 16 1016.5 1016.3 0.0
04/12:30pm 21.7 17.5 8.2 42 7.1 WSW 20 32 11 17 1016.7 1016.5 0.0
04/12:00pm 21.0 16.7 9.3 47 6.2 WSW 22 33 12 18 1016.9 1016.7 0.0
04/11:30am 20.0 16.2 9.0 49 5.8 W 19 28 10 15 1016.8 1016.6 0.0
04/11:00am 20.1 17.0 10.2 53 5.3 WSW 17 28 9 15 1017.1 1016.9 0.0
04/10:30am 19.2 15.9 9.4 53 5.2 W 17 26 9 14 1017.3 1017.1 0.0
04/10:00am 17.8 14.0 9.2 57 4.5 WSW 19 26 10 14 1017.4 1017.2 0.0
04/09:30am 17.2 13.8 9.1 59 4.2 WSW 17 24 9 13 1017.5 1017.3 0.0
04/09:00am 16.6 13.1 8.8 60 4.0 WSW 17 26 9 14 1017.8 1017.6 0.0
04/08:30am 15.5 11.6 8.5 63 3.6 W 19 26 10 14 1017.8 1017.6 0.0
04/08:00am 15.5 11.6 8.7 64 3.5 WSW 19 26 10 14 1017.5 1017.3 0.0
04/07:30am 15.2 11.4 9.1 67 3.1 W 19 24 10 13 1017.4 1017.2 0.0
04/07:00am 13.1 10.4 9.0 76 2.1 WNW 13 17 7 9 1017.2 1017.0 0.0
04/06:30am 12.7 9.5 8.4 75 2.1 W 15 19 8 10 1016.9 1016.7 0.0
04/06:00am 13.4 9.4 8.9 74 2.3 WNW 20 28 11 15 1016.6 1016.4 0.0
04/05:30am 13.7 10.8 9.6 76 2.1 W 15 20 8 11 1016.4 1016.2 0.0
04/05:00am 13.4 10.5 9.5 77 2.0 WNW 15 20 8 11 1016.2 1016.0 0.0
04/04:30am 13.6 10.4 9.8 78 2.0 W 17 20 9 11 1015.9 1015.7 0.0
04/04:00am 13.1 10.8 10.5 84 1.4 NW 13 15 7 8 1015.9 1015.7 0.0
04/03:30am 13.4 10.8 10.6 83 1.5 NW 15 19 8 10 1016.1 1015.9 0.0
04/03:00am 13.7 11.0 10.5 81 1.7 WNW 15 17 8 9 1016.0 1015.8 0.0
04/02:30am 13.3 11.1 10.8 85 1.3 NW 13 13 7 7 1016.1 1015.9 0.0
04/02:00am 13.2 10.9 10.6 84 1.4 WNW 13 15 7 8 1016.2 1016.0 0.0
04/01:30am 13.0 10.3 10.4 84 1.4 WNW 15 17 8 9 1016.5 1016.3 0.0
04/01:00am 12.9 10.6 10.4 85 1.3 WNW 13 15 7 8 1016.5 1016.3 0.0
04/12:30am 13.2 10.5 10.4 83 1.5 W 15 17 8 9 1016.6 1016.4 0.0
04/12:00am 13.3 11.0 10.3 82 1.6 W 13 17 7 9 1016.6 1016.4 0.0
 
Date/Time
CDT
Temp
°C
App
Temp
°C
Dew
Point
°C
Rel
Hum
%
Delta-T
°C
Wind Press
QNH
hPa
Press
MSL
hPa
Rain since
9am
mm
Dir  Spd
km/h
Gust
km/h
Spd
kts
Gust
kts
03/11:30pm 13.8 10.6 10.0 78 2.0 WSW 17 22 9 12 1016.8 1016.6 0.0
03/11:00pm 15.3 11.7 10.7 74 2.4 WSW 20 30 11 16 1016.7 1016.5 0.0
03/10:30pm 15.6 11.4 11.0 74 2.5 SW 24 33 13 18 1016.7 1016.5 0.0
03/10:00pm 15.9 12.0 10.9 72 2.7 SW 22 28 12 15 1016.5 1016.3 0.0

Latest Capital City Observations: Canberra | Sydney | Melbourne | Brisbane | Adelaide | Perth | Hobart | Darwin

Other formats

Comma delimited format used in spreadsheet applications
http://www.bom.gov.au/fwo/IDS60901/IDS60901.95671.axf

JavaScript Object Notation format (JSON) in row-major order
http://www.bom.gov.au/fwo/IDS60901/IDS60901.95671.json

Data quality

Most of these data are generated automatically and are frequently updated. Quality checks on data are not normally performed. It is possible for incorrect values to appear. Refer to information at About Latest Weather Observations and please check the disclaimer before using these data.